sensor_id;sensor_type;location;lat;lon;timestamp;P1;durP1;ratioP1;P2;durP2;ratioP2
40459;SDS011;26164;51.138;16.952;2023-08-07T00:00:32;5.75;;;4.13;;
40459;SDS011;26164;51.138;16.952;2023-08-07T00:03:18;7.50;;;4.22;;
40459;SDS011;26164;51.138;16.952;2023-08-07T00:05:44;6.50;;;4.40;;
40459;SDS011;26164;51.138;16.952;2023-08-07T00:08:10;10.23;;;4.70;;
40459;SDS011;26164;51.138;16.952;2023-08-07T00:10:36;6.93;;;4.40;;
40459;SDS011;26164;51.138;16.952;2023-08-07T00:13:02;7.20;;;4.15;;
40459;SDS011;26164;51.138;16.952;2023-08-07T00:15:28;8.00;;;4.38;;
40459;SDS011;26164;51.138;16.952;2023-08-07T00:17:54;7.95;;;4.45;;
40459;SDS011;26164;51.138;16.952;2023-08-07T00:20:20;6.97;;;4.07;;
40459;SDS011;26164;51.138;16.952;2023-08-07T00:22:46;8.48;;;4.13;;
40459;SDS011;26164;51.138;16.952;2023-08-07T00:25:11;6.55;;;4.05;;
40459;SDS011;26164;51.138;16.952;2023-08-07T00:27:37;6.90;;;3.42;;
40459;SDS011;26164;51.138;16.952;2023-08-07T00:30:04;6.45;;;3.85;;
40459;SDS011;26164;51.138;16.952;2023-08-07T00:32:30;9.05;;;3.88;;
40459;SDS011;26164;51.138;16.952;2023-08-07T00:34:56;7.35;;;3.47;;
40459;SDS011;26164;51.138;16.952;2023-08-07T00:37:22;7.63;;;3.53;;
40459;SDS011;26164;51.138;16.952;2023-08-07T00:39:48;4.75;;;3.50;;
40459;SDS011;26164;51.138;16.952;2023-08-07T00:42:13;4.80;;;3.47;;
40459;SDS011;26164;51.138;16.952;2023-08-07T00:44:39;4.72;;;3.05;;
40459;SDS011;26164;51.138;16.952;2023-08-07T00:47:06;11.85;;;3.20;;
40459;SDS011;26164;51.138;16.952;2023-08-07T00:49:31;8.25;;;3.20;;
40459;SDS011;26164;51.138;16.952;2023-08-07T00:51:57;8.40;;;3.60;;
40459;SDS011;26164;51.138;16.952;2023-08-07T00:54:23;5.43;;;3.67;;
40459;SDS011;26164;51.138;16.952;2023-08-07T00:56:50;4.75;;;3.10;;
40459;SDS011;26164;51.138;16.952;2023-08-07T00:59:16;6.20;;;3.35;;
40459;SDS011;26164;51.138;16.952;2023-08-07T01:01:43;6.72;;;3.40;;
40459;SDS011;26164;51.138;16.952;2023-08-07T01:04:09;6.85;;;3.00;;
40459;SDS011;26164;51.138;16.952;2023-08-07T01:06:35;4.97;;;3.55;;
40459;SDS011;26164;51.138;16.952;2023-08-07T01:09:00;6.95;;;3.78;;
40459;SDS011;26164;51.138;16.952;2023-08-07T01:11:48;8.75;;;3.20;;
40459;SDS011;26164;51.138;16.952;2023-08-07T01:16:57;5.63;;;3.42;;
40459;SDS011;26164;51.138;16.952;2023-08-07T01:19:25;6.47;;;4.00;;
40459;SDS011;26164;51.138;16.952;2023-08-07T01:22:10;11.20;;;5.22;;
40459;SDS011;26164;51.138;16.952;2023-08-07T01:24:38;7.18;;;5.20;;
40459;SDS011;26164;51.138;16.952;2023-08-07T01:30:02;7.30;;;4.85;;
40459;SDS011;26164;51.138;16.952;2023-08-07T01:32:35;10.32;;;5.05;;
40459;SDS011;26164;51.138;16.952;2023-08-07T01:35:05;7.38;;;4.47;;
40459;SDS011;26164;51.138;16.952;2023-08-07T01:37:34;9.02;;;4.72;;
40459;SDS011;26164;51.138;16.952;2023-08-07T01:40:00;6.80;;;4.55;;
40459;SDS011;26164;51.138;16.952;2023-08-07T01:42:27;7.00;;;5.07;;
40459;SDS011;26164;51.138;16.952;2023-08-07T01:44:52;10.32;;;6.10;;
40459;SDS011;26164;51.138;16.952;2023-08-07T01:47:18;13.00;;;8.65;;
40459;SDS011;26164;51.138;16.952;2023-08-07T01:49:44;15.20;;;9.90;;
40459;SDS011;26164;51.138;16.952;2023-08-07T01:52:09;18.42;;;8.98;;
40459;SDS011;26164;51.138;16.952;2023-08-07T01:54:36;11.10;;;7.30;;
40459;SDS011;26164;51.138;16.952;2023-08-07T01:57:02;9.55;;;6.88;;
40459;SDS011;26164;51.138;16.952;2023-08-07T01:59:28;13.40;;;6.82;;
40459;SDS011;26164;51.138;16.952;2023-08-07T02:01:54;12.38;;;5.80;;
40459;SDS011;26164;51.138;16.952;2023-08-07T02:04:20;10.10;;;5.63;;
40459;SDS011;26164;51.138;16.952;2023-08-07T02:06:46;9.95;;;5.00;;
40459;SDS011;26164;51.138;16.952;2023-08-07T02:09:11;12.15;;;5.28;;
40459;SDS011;26164;51.138;16.952;2023-08-07T02:11:37;11.02;;;4.85;;
40459;SDS011;26164;51.138;16.952;2023-08-07T02:14:03;9.35;;;4.70;;
40459;SDS011;26164;51.138;16.952;2023-08-07T02:16:29;9.80;;;4.43;;
40459;SDS011;26164;51.138;16.952;2023-08-07T02:18:58;11.02;;;4.40;;
40459;SDS011;26164;51.138;16.952;2023-08-07T02:21:23;7.03;;;4.43;;
40459;SDS011;26164;51.138;16.952;2023-08-07T02:23:49;9.65;;;4.40;;
40459;SDS011;26164;51.138;16.952;2023-08-07T02:26:15;8.02;;;4.15;;
40459;SDS011;26164;51.138;16.952;2023-08-07T02:28:41;9.13;;;4.30;;
40459;SDS011;26164;51.138;16.952;2023-08-07T02:31:06;6.00;;;3.88;;
40459;SDS011;26164;51.138;16.952;2023-08-07T02:33:32;7.72;;;3.95;;
40459;SDS011;26164;51.138;16.952;2023-08-07T02:35:58;7.50;;;4.60;;
40459;SDS011;26164;51.138;16.952;2023-08-07T02:38:25;8.18;;;3.70;;
40459;SDS011;26164;51.138;16.952;2023-08-07T02:40:50;6.18;;;3.70;;
40459;SDS011;26164;51.138;16.952;2023-08-07T02:43:16;10.07;;;3.60;;
40459;SDS011;26164;51.138;16.952;2023-08-07T02:45:42;5.22;;;3.60;;
40459;SDS011;26164;51.138;16.952;2023-08-07T02:48:07;7.57;;;3.85;;
40459;SDS011;26164;51.138;16.952;2023-08-07T02:50:35;7.18;;;3.85;;
40459;SDS011;26164;51.138;16.952;2023-08-07T02:53:01;8.77;;;3.55;;
40459;SDS011;26164;51.138;16.952;2023-08-07T02:55:27;6.68;;;4.03;;
40459;SDS011;26164;51.138;16.952;2023-08-07T02:57:53;7.57;;;3.63;;
40459;SDS011;26164;51.138;16.952;2023-08-07T03:00:19;7.03;;;3.40;;
40459;SDS011;26164;51.138;16.952;2023-08-07T03:02:45;10.38;;;3.58;;
40459;SDS011;26164;51.138;16.952;2023-08-07T03:05:11;7.38;;;3.35;;
40459;SDS011;26164;51.138;16.952;2023-08-07T03:07:36;5.70;;;2.80;;
40459;SDS011;26164;51.138;16.952;2023-08-07T03:10:02;6.40;;;3.40;;
40459;SDS011;26164;51.138;16.952;2023-08-07T03:12:29;8.20;;;3.50;;
40459;SDS011;26164;51.138;16.952;2023-08-07T03:14:55;8.25;;;3.65;;
40459;SDS011;26164;51.138;16.952;2023-08-07T03:17:20;6.68;;;3.67;;
40459;SDS011;26164;51.138;16.952;2023-08-07T03:19:46;9.15;;;3.28;;
40459;SDS011;26164;51.138;16.952;2023-08-07T03:22:12;4.82;;;3.33;;
40459;SDS011;26164;51.138;16.952;2023-08-07T03:24:38;7.38;;;3.22;;
40459;SDS011;26164;51.138;16.952;2023-08-07T03:27:04;7.75;;;3.58;;
40459;SDS011;26164;51.138;16.952;2023-08-07T03:29:31;9.18;;;3.42;;
40459;SDS011;26164;51.138;16.952;2023-08-07T03:31:57;6.25;;;3.22;;
40459;SDS011;26164;51.138;16.952;2023-08-07T03:34:23;11.50;;;4.07;;
40459;SDS011;26164;51.138;16.952;2023-08-07T03:36:48;9.68;;;4.05;;
40459;SDS011;26164;51.138;16.952;2023-08-07T03:39:14;6.70;;;3.50;;
40459;SDS011;26164;51.138;16.952;2023-08-07T03:41:40;4.35;;;3.33;;
40459;SDS011;26164;51.138;16.952;2023-08-07T03:44:08;10.10;;;3.42;;
40459;SDS011;26164;51.138;16.952;2023-08-07T03:46:34;11.18;;;3.38;;
40459;SDS011;26164;51.138;16.952;2023-08-07T03:48:59;8.75;;;3.72;;
40459;SDS011;26164;51.138;16.952;2023-08-07T03:51:27;8.70;;;3.92;;
40459;SDS011;26164;51.138;16.952;2023-08-07T03:53:55;8.40;;;4.30;;
40459;SDS011;26164;51.138;16.952;2023-08-07T03:56:21;11.73;;;4.78;;
40459;SDS011;26164;51.138;16.952;2023-08-07T03:58:47;16.50;;;5.38;;
40459;SDS011;26164;51.138;16.952;2023-08-07T04:01:14;13.88;;;5.40;;
40459;SDS011;26164;51.138;16.952;2023-08-07T04:03:41;10.65;;;5.25;;
40459;SDS011;26164;51.138;16.952;2023-08-07T04:06:06;13.00;;;6.20;;
40459;SDS011;26164;51.138;16.952;2023-08-07T04:08:32;10.32;;;5.32;;
40459;SDS011;26164;51.138;16.952;2023-08-07T04:11:02;9.38;;;5.75;;
40459;SDS011;26164;51.138;16.952;2023-08-07T04:13:28;8.85;;;5.50;;
40459;SDS011;26164;51.138;16.952;2023-08-07T04:15:54;8.93;;;5.68;;
40459;SDS011;26164;51.138;16.952;2023-08-07T04:18:21;10.20;;;5.28;;
40459;SDS011;26164;51.138;16.952;2023-08-07T04:20:55;10.55;;;6.05;;
40459;SDS011;26164;51.138;16.952;2023-08-07T04:23:22;27.20;;;6.50;;
40459;SDS011;26164;51.138;16.952;2023-08-07T04:25:51;37.42;;;6.20;;
40459;SDS011;26164;51.138;16.952;2023-08-07T04:28:20;14.85;;;5.65;;
40459;SDS011;26164;51.138;16.952;2023-08-07T04:30:55;26.80;;;5.88;;
40459;SDS011;26164;51.138;16.952;2023-08-07T04:33:27;24.90;;;6.40;;
40459;SDS011;26164;51.138;16.952;2023-08-07T04:36:32;11.02;;;6.43;;
40459;SDS011;26164;51.138;16.952;2023-08-07T04:39:48;12.50;;;6.40;;
40459;SDS011;26164;51.138;16.952;2023-08-07T04:42:13;13.82;;;8.40;;
40459;SDS011;26164;51.138;16.952;2023-08-07T04:44:39;11.93;;;6.97;;
40459;SDS011;26164;51.138;16.952;2023-08-07T04:47:05;13.32;;;7.45;;
40459;SDS011;26164;51.138;16.952;2023-08-07T04:49:31;13.10;;;7.40;;
40459;SDS011;26164;51.138;16.952;2023-08-07T04:51:57;10.13;;;6.70;;
40459;SDS011;26164;51.138;16.952;2023-08-07T04:54:23;11.13;;;6.97;;
40459;SDS011;26164;51.138;16.952;2023-08-07T04:56:49;14.70;;;8.38;;
40459;SDS011;26164;51.138;16.952;2023-08-07T04:59:15;12.55;;;6.57;;
40459;SDS011;26164;51.138;16.952;2023-08-07T05:01:41;12.43;;;7.07;;
40459;SDS011;26164;51.138;16.952;2023-08-07T05:04:08;13.13;;;7.53;;
40459;SDS011;26164;51.138;16.952;2023-08-07T05:06:33;17.58;;;8.52;;
40459;SDS011;26164;51.138;16.952;2023-08-07T05:09:00;14.30;;;8.27;;
40459;SDS011;26164;51.138;16.952;2023-08-07T05:11:25;16.58;;;8.88;;
40459;SDS011;26164;51.138;16.952;2023-08-07T05:13:52;17.17;;;8.10;;
40459;SDS011;26164;51.138;16.952;2023-08-07T05:16:17;12.63;;;7.85;;
40459;SDS011;26164;51.138;16.952;2023-08-07T05:18:44;10.57;;;6.80;;
40459;SDS011;26164;51.138;16.952;2023-08-07T05:21:10;10.15;;;6.40;;
40459;SDS011;26164;51.138;16.952;2023-08-07T05:23:36;8.27;;;5.95;;
40459;SDS011;26164;51.138;16.952;2023-08-07T05:26:02;12.10;;;6.15;;
40459;SDS011;26164;51.138;16.952;2023-08-07T05:28:31;9.80;;;5.78;;
40459;SDS011;26164;51.138;16.952;2023-08-07T05:30:57;9.32;;;6.18;;
40459;SDS011;26164;51.138;16.952;2023-08-07T05:33:24;9.73;;;5.47;;
40459;SDS011;26164;51.138;16.952;2023-08-07T05:35:49;9.10;;;6.30;;
40459;SDS011;26164;51.138;16.952;2023-08-07T05:38:18;16.13;;;10.10;;
40459;SDS011;26164;51.138;16.952;2023-08-07T05:40:44;19.90;;;13.65;;
40459;SDS011;26164;51.138;16.952;2023-08-07T05:43:10;22.70;;;14.77;;
40459;SDS011;26164;51.138;16.952;2023-08-07T05:45:38;20.17;;;15.70;;
40459;SDS011;26164;51.138;16.952;2023-08-07T05:48:12;21.97;;;14.53;;
40459;SDS011;26164;51.138;16.952;2023-08-07T05:50:37;20.27;;;13.90;;
40459;SDS011;26164;51.138;16.952;2023-08-07T05:53:03;17.02;;;12.18;;
40459;SDS011;26164;51.138;16.952;2023-08-07T05:55:30;13.00;;;8.85;;
40459;SDS011;26164;51.138;16.952;2023-08-07T05:57:59;11.80;;;7.05;;
40459;SDS011;26164;51.138;16.952;2023-08-07T06:00:25;12.27;;;7.57;;
40459;SDS011;26164;51.138;16.952;2023-08-07T06:02:52;10.07;;;7.07;;
40459;SDS011;26164;51.138;16.952;2023-08-07T06:05:18;11.55;;;7.07;;
40459;SDS011;26164;51.138;16.952;2023-08-07T06:07:44;6.43;;;4.13;;
40459;SDS011;26164;51.138;16.952;2023-08-07T06:10:10;9.15;;;4.57;;
40459;SDS011;26164;51.138;16.952;2023-08-07T06:12:36;8.68;;;4.75;;
40459;SDS011;26164;51.138;16.952;2023-08-07T06:15:06;6.78;;;4.70;;
40459;SDS011;26164;51.138;16.952;2023-08-07T06:17:32;10.20;;;4.97;;
40459;SDS011;26164;51.138;16.952;2023-08-07T06:19:58;8.30;;;5.05;;
40459;SDS011;26164;51.138;16.952;2023-08-07T06:22:42;7.57;;;4.40;;
40459;SDS011;26164;51.138;16.952;2023-08-07T06:25:09;7.47;;;4.60;;
40459;SDS011;26164;51.138;16.952;2023-08-07T06:27:39;8.02;;;4.53;;
40459;SDS011;26164;51.138;16.952;2023-08-07T06:30:06;5.95;;;4.68;;
40459;SDS011;26164;51.138;16.952;2023-08-07T06:32:33;10.02;;;4.50;;
40459;SDS011;26164;51.138;16.952;2023-08-07T06:35:00;6.30;;;3.85;;
40459;SDS011;26164;51.138;16.952;2023-08-07T06:40:02;6.38;;;3.95;;
40459;SDS011;26164;51.138;16.952;2023-08-07T06:42:31;4.88;;;3.42;;
40459;SDS011;26164;51.138;16.952;2023-08-07T06:44:57;4.75;;;3.25;;
40459;SDS011;26164;51.138;16.952;2023-08-07T06:47:22;4.45;;;3.05;;
40459;SDS011;26164;51.138;16.952;2023-08-07T06:49:49;7.18;;;3.60;;
40459;SDS011;26164;51.138;16.952;2023-08-07T06:52:15;4.72;;;3.40;;
40459;SDS011;26164;51.138;16.952;2023-08-07T06:54:41;9.27;;;3.38;;
40459;SDS011;26164;51.138;16.952;2023-08-07T06:57:07;4.28;;;2.63;;
40459;SDS011;26164;51.138;16.952;2023-08-07T06:59:40;4.45;;;2.45;;
40459;SDS011;26164;51.138;16.952;2023-08-07T07:02:06;4.20;;;2.58;;
40459;SDS011;26164;51.138;16.952;2023-08-07T07:04:35;3.28;;;2.17;;
40459;SDS011;26164;51.138;16.952;2023-08-07T07:07:12;4.72;;;2.53;;
40459;SDS011;26164;51.138;16.952;2023-08-07T07:09:40;6.10;;;2.75;;
40459;SDS011;26164;51.138;16.952;2023-08-07T07:12:06;8.40;;;3.50;;
40459;SDS011;26164;51.138;16.952;2023-08-07T07:14:34;4.28;;;2.50;;
40459;SDS011;26164;51.138;16.952;2023-08-07T07:17:00;7.05;;;2.35;;
40459;SDS011;26164;51.138;16.952;2023-08-07T07:19:26;4.35;;;2.00;;
40459;SDS011;26164;51.138;16.952;2023-08-07T07:21:57;5.18;;;2.67;;
40459;SDS011;26164;51.138;16.952;2023-08-07T07:24:25;4.82;;;2.72;;
40459;SDS011;26164;51.138;16.952;2023-08-07T07:26:51;4.43;;;2.10;;
40459;SDS011;26164;51.138;16.952;2023-08-07T07:29:19;5.95;;;3.30;;
40459;SDS011;26164;51.138;16.952;2023-08-07T07:31:45;6.45;;;2.40;;
40459;SDS011;26164;51.138;16.952;2023-08-07T07:34:11;3.55;;;2.05;;
40459;SDS011;26164;51.138;16.952;2023-08-07T07:36:37;3.83;;;1.95;;
40459;SDS011;26164;51.138;16.952;2023-08-07T07:39:03;4.57;;;2.05;;
40459;SDS011;26164;51.138;16.952;2023-08-07T07:41:29;2.97;;;1.80;;
40459;SDS011;26164;51.138;16.952;2023-08-07T07:44:06;4.32;;;1.83;;
40459;SDS011;26164;51.138;16.952;2023-08-07T07:46:45;34.45;;;16.60;;
40459;SDS011;26164;51.138;16.952;2023-08-07T07:49:24;6.22;;;2.72;;
40459;SDS011;26164;51.138;16.952;2023-08-07T07:51:52;5.20;;;1.95;;
40459;SDS011;26164;51.138;16.952;2023-08-07T07:54:27;3.63;;;2.05;;
40459;SDS011;26164;51.138;16.952;2023-08-07T07:56:58;5.18;;;2.10;;
40459;SDS011;26164;51.138;16.952;2023-08-07T07:59:45;5.68;;;2.08;;
40459;SDS011;26164;51.138;16.952;2023-08-07T08:02:17;5.25;;;2.33;;
40459;SDS011;26164;51.138;16.952;2023-08-07T08:04:52;4.82;;;2.28;;
40459;SDS011;26164;51.138;16.952;2023-08-07T08:07:29;3.30;;;1.95;;
40459;SDS011;26164;51.138;16.952;2023-08-07T08:10:22;4.67;;;2.40;;
40459;SDS011;26164;51.138;16.952;2023-08-07T08:12:58;5.53;;;2.03;;
40459;SDS011;26164;51.138;16.952;2023-08-07T08:15:34;3.20;;;2.10;;
40459;SDS011;26164;51.138;16.952;2023-08-07T08:18:00;5.25;;;2.17;;
40459;SDS011;26164;51.138;16.952;2023-08-07T08:20:27;6.28;;;2.60;;
40459;SDS011;26164;51.138;16.952;2023-08-07T08:22:52;4.32;;;2.00;;
40459;SDS011;26164;51.138;16.952;2023-08-07T08:25:19;5.65;;;2.15;;
40459;SDS011;26164;51.138;16.952;2023-08-07T08:27:44;8.82;;;2.33;;
40459;SDS011;26164;51.138;16.952;2023-08-07T08:30:11;6.75;;;2.40;;
40459;SDS011;26164;51.138;16.952;2023-08-07T08:32:38;5.75;;;2.10;;
40459;SDS011;26164;51.138;16.952;2023-08-07T08:35:04;4.10;;;2.30;;
40459;SDS011;26164;51.138;16.952;2023-08-07T08:37:31;7.07;;;2.60;;
40459;SDS011;26164;51.138;16.952;2023-08-07T08:39:57;2.95;;;1.83;;
40459;SDS011;26164;51.138;16.952;2023-08-07T08:42:22;4.93;;;2.40;;
40459;SDS011;26164;51.138;16.952;2023-08-07T08:44:51;6.75;;;1.65;;
40459;SDS011;26164;51.138;16.952;2023-08-07T08:47:17;3.58;;;2.00;;
40459;SDS011;26164;51.138;16.952;2023-08-07T08:49:47;3.67;;;1.88;;
40459;SDS011;26164;51.138;16.952;2023-08-07T08:52:13;6.25;;;2.08;;
40459;SDS011;26164;51.138;16.952;2023-08-07T08:54:39;5.47;;;2.10;;
40459;SDS011;26164;51.138;16.952;2023-08-07T08:57:06;4.85;;;2.20;;
40459;SDS011;26164;51.138;16.952;2023-08-07T08:59:32;4.93;;;2.28;;
40459;SDS011;26164;51.138;16.952;2023-08-07T09:01:59;7.55;;;2.60;;
40459;SDS011;26164;51.138;16.952;2023-08-07T09:04:25;5.43;;;2.25;;
40459;SDS011;26164;51.138;16.952;2023-08-07T09:06:51;6.63;;;2.55;;
40459;SDS011;26164;51.138;16.952;2023-08-07T09:09:17;7.05;;;2.67;;
40459;SDS011;26164;51.138;16.952;2023-08-07T09:11:49;3.53;;;2.05;;
40459;SDS011;26164;51.138;16.952;2023-08-07T09:14:19;5.35;;;2.40;;
40459;SDS011;26164;51.138;16.952;2023-08-07T09:16:45;4.85;;;2.50;;
40459;SDS011;26164;51.138;16.952;2023-08-07T09:19:13;5.03;;;1.73;;
40459;SDS011;26164;51.138;16.952;2023-08-07T09:21:38;4.30;;;2.40;;
40459;SDS011;26164;51.138;16.952;2023-08-07T09:24:05;3.30;;;1.98;;
40459;SDS011;26164;51.138;16.952;2023-08-07T09:26:34;3.90;;;1.88;;
40459;SDS011;26164;51.138;16.952;2023-08-07T09:29:15;7.20;;;2.22;;
40459;SDS011;26164;51.138;16.952;2023-08-07T09:31:45;3.95;;;2.00;;
40459;SDS011;26164;51.138;16.952;2023-08-07T09:34:11;5.15;;;2.00;;
40459;SDS011;26164;51.138;16.952;2023-08-07T09:36:40;3.53;;;1.75;;
40459;SDS011;26164;51.138;16.952;2023-08-07T09:39:06;3.45;;;1.70;;
40459;SDS011;26164;51.138;16.952;2023-08-07T09:41:32;3.97;;;1.45;;
40459;SDS011;26164;51.138;16.952;2023-08-07T09:43:59;3.53;;;1.75;;
40459;SDS011;26164;51.138;16.952;2023-08-07T09:46:32;5.68;;;1.58;;
40459;SDS011;26164;51.138;16.952;2023-08-07T09:49:05;2.50;;;1.17;;
40459;SDS011;26164;51.138;16.952;2023-08-07T09:54:48;3.70;;;1.50;;
40459;SDS011;26164;51.138;16.952;2023-08-07T09:57:14;3.90;;;1.02;;
40459;SDS011;26164;51.138;16.952;2023-08-07T09:59:42;1.77;;;0.90;;
40459;SDS011;26164;51.138;16.952;2023-08-07T10:02:08;4.13;;;1.10;;
40459;SDS011;26164;51.138;16.952;2023-08-07T10:04:35;2.30;;;0.90;;
40459;SDS011;26164;51.138;16.952;2023-08-07T10:07:01;6.20;;;1.08;;
40459;SDS011;26164;51.138;16.952;2023-08-07T10:09:27;2.67;;;1.10;;
40459;SDS011;26164;51.138;16.952;2023-08-07T10:11:53;2.05;;;0.90;;
40459;SDS011;26164;51.138;16.952;2023-08-07T10:14:19;4.30;;;1.15;;
40459;SDS011;26164;51.138;16.952;2023-08-07T10:16:47;2.72;;;1.10;;
40459;SDS011;26164;51.138;16.952;2023-08-07T10:19:14;2.85;;;1.23;;
40459;SDS011;26164;51.138;16.952;2023-08-07T10:21:40;2.03;;;0.90;;
40459;SDS011;26164;51.138;16.952;2023-08-07T10:24:07;3.88;;;0.77;;
40459;SDS011;26164;51.138;16.952;2023-08-07T10:26:34;3.20;;;0.98;;
40459;SDS011;26164;51.138;16.952;2023-08-07T10:29:04;2.20;;;0.90;;
40459;SDS011;26164;51.138;16.952;2023-08-07T10:31:33;2.53;;;1.08;;
40459;SDS011;26164;51.138;16.952;2023-08-07T10:33:59;4.43;;;1.08;;
40459;SDS011;26164;51.138;16.952;2023-08-07T10:36:31;2.33;;;1.02;;
40459;SDS011;26164;51.138;16.952;2023-08-07T10:39:07;4.15;;;1.38;;
40459;SDS011;26164;51.138;16.952;2023-08-07T10:41:46;2.83;;;1.00;;
40459;SDS011;26164;51.138;16.952;2023-08-07T10:46:47;2.33;;;1.10;;
40459;SDS011;26164;51.138;16.952;2023-08-07T10:49:29;1.15;;;0.80;;
40459;SDS011;26164;51.138;16.952;2023-08-07T10:52:18;2.92;;;1.00;;
40459;SDS011;26164;51.138;16.952;2023-08-07T10:54:50;1.85;;;1.00;;
40459;SDS011;26164;51.138;16.952;2023-08-07T10:57:17;2.80;;;1.30;;
40459;SDS011;26164;51.138;16.952;2023-08-07T11:02:23;9.73;;;1.30;;
40459;SDS011;26164;51.138;16.952;2023-08-07T11:04:49;2.97;;;1.00;;
40459;SDS011;26164;51.138;16.952;2023-08-07T11:07:22;2.90;;;1.10;;
40459;SDS011;26164;51.138;16.952;2023-08-07T11:09:48;4.15;;;1.35;;
40459;SDS011;26164;51.138;16.952;2023-08-07T11:12:14;3.40;;;1.15;;
40459;SDS011;26164;51.138;16.952;2023-08-07T11:14:40;4.20;;;1.35;;
40459;SDS011;26164;51.138;16.952;2023-08-07T11:17:06;2.35;;;1.05;;
40459;SDS011;26164;51.138;16.952;2023-08-07T11:19:33;4.72;;;1.20;;
40459;SDS011;26164;51.138;16.952;2023-08-07T11:21:59;3.42;;;1.40;;
40459;SDS011;26164;51.138;16.952;2023-08-07T11:24:27;4.90;;;1.38;;
40459;SDS011;26164;51.138;16.952;2023-08-07T11:26:57;5.60;;;1.55;;
40459;SDS011;26164;51.138;16.952;2023-08-07T11:29:24;4.47;;;1.30;;
40459;SDS011;26164;51.138;16.952;2023-08-07T11:31:50;2.90;;;1.33;;
40459;SDS011;26164;51.138;16.952;2023-08-07T11:34:18;7.75;;;1.42;;
40459;SDS011;26164;51.138;16.952;2023-08-07T11:36:48;5.05;;;1.60;;
40459;SDS011;26164;51.138;16.952;2023-08-07T11:39:14;3.97;;;1.50;;
40459;SDS011;26164;51.138;16.952;2023-08-07T11:41:40;4.40;;;1.27;;
40459;SDS011;26164;51.138;16.952;2023-08-07T11:44:12;3.20;;;1.20;;
40459;SDS011;26164;51.138;16.952;2023-08-07T11:46:38;2.17;;;1.23;;
40459;SDS011;26164;51.138;16.952;2023-08-07T11:49:04;2.85;;;0.90;;
40459;SDS011;26164;51.138;16.952;2023-08-07T11:51:30;2.22;;;1.10;;
40459;SDS011;26164;51.138;16.952;2023-08-07T11:53:56;3.92;;;1.10;;
40459;SDS011;26164;51.138;16.952;2023-08-07T11:56:24;1.35;;;0.70;;
40459;SDS011;26164;51.138;16.952;2023-08-07T11:58:51;2.85;;;0.93;;
40459;SDS011;26164;51.138;16.952;2023-08-07T12:01:24;2.47;;;1.30;;
40459;SDS011;26164;51.138;16.952;2023-08-07T12:03:51;1.98;;;1.00;;
40459;SDS011;26164;51.138;16.952;2023-08-07T12:06:17;2.72;;;1.30;;
40459;SDS011;26164;51.138;16.952;2023-08-07T12:08:48;7.70;;;1.60;;
40459;SDS011;26164;51.138;16.952;2023-08-07T12:11:14;4.32;;;1.40;;
40459;SDS011;26164;51.138;16.952;2023-08-07T12:13:43;3.33;;;1.17;;
40459;SDS011;26164;51.138;16.952;2023-08-07T12:16:10;3.75;;;1.40;;
40459;SDS011;26164;51.138;16.952;2023-08-07T12:18:44;2.15;;;1.10;;
40459;SDS011;26164;51.138;16.952;2023-08-07T12:21:13;2.22;;;1.10;;
40459;SDS011;26164;51.138;16.952;2023-08-07T12:23:39;3.60;;;1.30;;
40459;SDS011;26164;51.138;16.952;2023-08-07T12:26:05;6.70;;;1.73;;
40459;SDS011;26164;51.138;16.952;2023-08-07T12:28:34;3.17;;;1.20;;
40459;SDS011;26164;51.138;16.952;2023-08-07T12:30:59;2.20;;;1.20;;
40459;SDS011;26164;51.138;16.952;2023-08-07T12:33:25;2.70;;;1.60;;
40459;SDS011;26164;51.138;16.952;2023-08-07T12:35:52;4.85;;;1.67;;
40459;SDS011;26164;51.138;16.952;2023-08-07T12:38:19;4.10;;;1.25;;
40459;SDS011;26164;51.138;16.952;2023-08-07T12:40:46;4.43;;;1.88;;
40459;SDS011;26164;51.138;16.952;2023-08-07T12:43:15;3.30;;;1.52;;
40459;SDS011;26164;51.138;16.952;2023-08-07T12:45:43;2.47;;;1.50;;
40459;SDS011;26164;51.138;16.952;2023-08-07T12:48:11;4.88;;;1.20;;
40459;SDS011;26164;51.138;16.952;2023-08-07T12:50:39;2.63;;;1.02;;
40459;SDS011;26164;51.138;16.952;2023-08-07T12:53:06;2.42;;;1.08;;
40459;SDS011;26164;51.138;16.952;2023-08-07T12:55:34;1.70;;;0.80;;
40459;SDS011;26164;51.138;16.952;2023-08-07T12:58:01;7.07;;;1.23;;
40459;SDS011;26164;51.138;16.952;2023-08-07T13:00:26;4.28;;;1.17;;
40459;SDS011;26164;51.138;16.952;2023-08-07T13:02:53;2.15;;;1.15;;
40459;SDS011;26164;51.138;16.952;2023-08-07T13:05:20;3.60;;;1.17;;
40459;SDS011;26164;51.138;16.952;2023-08-07T13:07:47;2.58;;;0.90;;
40459;SDS011;26164;51.138;16.952;2023-08-07T13:10:14;3.00;;;1.70;;
40459;SDS011;26164;51.138;16.952;2023-08-07T13:12:44;2.67;;;1.65;;
40459;SDS011;26164;51.138;16.952;2023-08-07T13:15:14;2.10;;;1.30;;
40459;SDS011;26164;51.138;16.952;2023-08-07T13:17:41;3.65;;;1.67;;
40459;SDS011;26164;51.138;16.952;2023-08-07T13:20:08;2.97;;;1.67;;
40459;SDS011;26164;51.138;16.952;2023-08-07T13:22:35;2.70;;;1.05;;
40459;SDS011;26164;51.138;16.952;2023-08-07T13:25:01;3.03;;;1.20;;
40459;SDS011;26164;51.138;16.952;2023-08-07T13:27:30;2.08;;;1.10;;
40459;SDS011;26164;51.138;16.952;2023-08-07T13:29:56;3.92;;;1.17;;
40459;SDS011;26164;51.138;16.952;2023-08-07T13:32:22;5.15;;;1.08;;
40459;SDS011;26164;51.138;16.952;2023-08-07T13:34:48;3.25;;;1.10;;
40459;SDS011;26164;51.138;16.952;2023-08-07T13:37:14;3.47;;;1.38;;
40459;SDS011;26164;51.138;16.952;2023-08-07T13:39:40;4.25;;;1.10;;
40459;SDS011;26164;51.138;16.952;2023-08-07T13:42:07;4.50;;;0.90;;
40459;SDS011;26164;51.138;16.952;2023-08-07T13:44:32;2.10;;;0.95;;
40459;SDS011;26164;51.138;16.952;2023-08-07T13:46:59;3.17;;;0.98;;
40459;SDS011;26164;51.138;16.952;2023-08-07T13:49:24;3.13;;;0.98;;
40459;SDS011;26164;51.138;16.952;2023-08-07T13:51:51;3.38;;;1.00;;
40459;SDS011;26164;51.138;16.952;2023-08-07T13:54:16;1.88;;;0.93;;
40459;SDS011;26164;51.138;16.952;2023-08-07T13:56:43;2.35;;;0.80;;
40459;SDS011;26164;51.138;16.952;2023-08-07T13:59:09;2.70;;;0.90;;
40459;SDS011;26164;51.138;16.952;2023-08-07T14:01:36;2.63;;;0.93;;
40459;SDS011;26164;51.138;16.952;2023-08-07T14:04:02;3.38;;;1.02;;
40459;SDS011;26164;51.138;16.952;2023-08-07T14:06:28;1.90;;;0.90;;
40459;SDS011;26164;51.138;16.952;2023-08-07T14:32:24;0.90;;;0.50;;
40459;SDS011;26164;51.138;16.952;2023-08-07T14:34:49;2.50;;;0.47;;
40459;SDS011;26164;51.138;16.952;2023-08-07T14:37:16;2.80;;;0.60;;
40459;SDS011;26164;51.138;16.952;2023-08-07T14:39:41;1.65;;;0.55;;
40459;SDS011;26164;51.138;16.952;2023-08-07T14:42:07;2.10;;;0.60;;
40459;SDS011;26164;51.138;16.952;2023-08-07T14:44:33;1.08;;;0.38;;
40459;SDS011;26164;51.138;16.952;2023-08-07T14:46:59;1.90;;;0.52;;
40459;SDS011;26164;51.138;16.952;2023-08-07T14:49:25;5.93;;;0.60;;
40459;SDS011;26164;51.138;16.952;2023-08-07T14:51:51;1.83;;;0.50;;
40459;SDS011;26164;51.138;16.952;2023-08-07T14:54:17;2.08;;;0.50;;
40459;SDS011;26164;51.138;16.952;2023-08-07T14:56:43;1.23;;;0.40;;
40459;SDS011;26164;51.138;16.952;2023-08-07T14:59:09;1.08;;;0.32;;
40459;SDS011;26164;51.138;16.952;2023-08-07T15:01:35;4.10;;;0.50;;
40459;SDS011;26164;51.138;16.952;2023-08-07T15:04:01;1.75;;;0.40;;
40459;SDS011;26164;51.138;16.952;2023-08-07T15:06:30;2.10;;;0.50;;
40459;SDS011;26164;51.138;16.952;2023-08-07T15:08:56;1.48;;;0.52;;
40459;SDS011;26164;51.138;16.952;2023-08-07T15:11:22;1.88;;;0.55;;
40459;SDS011;26164;51.138;16.952;2023-08-07T15:13:48;1.27;;;0.40;;